sensor_id;sensor_type;location;lat;lon;timestamp;P1;durP1;ratioP1;P2;durP2;ratioP2
4527;SDS011;62320;51.520;6.818;2023-05-10T00:07:10;12.48;;;5.15;;
4527;SDS011;62320;51.520;6.818;2023-05-10T00:17:12;14.30;;;5.37;;
4527;SDS011;62320;51.520;6.818;2023-05-10T00:27:13;14.10;;;5.70;;
4527;SDS011;62320;51.520;6.818;2023-05-10T00:37:15;13.98;;;6.20;;
4527;SDS011;62320;51.520;6.818;2023-05-10T00:47:16;16.40;;;6.00;;
4527;SDS011;62320;51.520;6.818;2023-05-10T00:57:18;17.50;;;7.37;;
4527;SDS011;62320;51.520;6.818;2023-05-10T01:07:20;16.17;;;6.53;;
4527;SDS011;62320;51.520;6.818;2023-05-10T01:17:21;15.13;;;6.47;;
4527;SDS011;62320;51.520;6.818;2023-05-10T01:37:41;17.47;;;6.97;;
4527;SDS011;62320;51.520;6.818;2023-05-10T01:47:50;20.15;;;7.55;;
4527;SDS011;62320;51.520;6.818;2023-05-10T01:58:17;18.73;;;7.70;;
4527;SDS011;62320;51.520;6.818;2023-05-10T02:08:22;18.47;;;7.00;;
4527;SDS011;62320;51.520;6.818;2023-05-10T02:18:25;18.27;;;7.45;;
4527;SDS011;62320;51.520;6.818;2023-05-10T02:28:28;22.17;;;8.17;;
4527;SDS011;62320;51.520;6.818;2023-05-10T02:38:31;22.47;;;8.30;;
4527;SDS011;62320;51.520;6.818;2023-05-10T02:48:35;24.35;;;8.80;;
4527;SDS011;62320;51.520;6.818;2023-05-10T02:58:37;22.52;;;8.40;;
4527;SDS011;62320;51.520;6.818;2023-05-10T03:08:38;26.67;;;9.70;;
4527;SDS011;62320;51.520;6.818;2023-05-10T03:18:44;24.40;;;9.93;;
4527;SDS011;62320;51.520;6.818;2023-05-10T03:28:52;23.80;;;10.15;;
4527;SDS011;62320;51.520;6.818;2023-05-10T03:38:54;29.73;;;11.90;;
4527;SDS011;62320;51.520;6.818;2023-05-10T03:48:56;32.60;;;12.63;;
4527;SDS011;62320;51.520;6.818;2023-05-10T03:58:57;32.65;;;11.48;;
4527;SDS011;62320;51.520;6.818;2023-05-10T04:08:58;32.70;;;12.10;;
4527;SDS011;62320;51.520;6.818;2023-05-10T04:19:01;35.80;;;12.70;;
4527;SDS011;62320;51.520;6.818;2023-05-10T04:29:03;36.85;;;13.63;;
4527;SDS011;62320;51.520;6.818;2023-05-10T04:39:05;34.95;;;12.82;;
4527;SDS011;62320;51.520;6.818;2023-05-10T04:49:06;35.53;;;14.07;;
4527;SDS011;62320;51.520;6.818;2023-05-10T04:59:08;33.13;;;12.93;;
4527;SDS011;62320;51.520;6.818;2023-05-10T05:09:09;33.35;;;12.60;;
4527;SDS011;62320;51.520;6.818;2023-05-10T05:19:11;34.37;;;13.87;;
4527;SDS011;62320;51.520;6.818;2023-05-10T05:29:12;34.13;;;12.83;;
4527;SDS011;62320;51.520;6.818;2023-05-10T05:39:14;34.92;;;14.35;;
4527;SDS011;62320;51.520;6.818;2023-05-10T05:49:15;36.43;;;15.10;;
4527;SDS011;62320;51.520;6.818;2023-05-10T05:59:17;36.70;;;13.00;;
4527;SDS011;62320;51.520;6.818;2023-05-10T06:09:18;40.70;;;15.27;;
4527;SDS011;62320;51.520;6.818;2023-05-10T06:19:19;36.88;;;13.65;;
4527;SDS011;62320;51.520;6.818;2023-05-10T06:29:21;39.30;;;14.43;;
4527;SDS011;62320;51.520;6.818;2023-05-10T06:39:22;40.63;;;15.70;;
4527;SDS011;62320;51.520;6.818;2023-05-10T06:49:24;44.67;;;16.67;;
4527;SDS011;62320;51.520;6.818;2023-05-10T06:59:25;43.93;;;17.80;;
4527;SDS011;62320;51.520;6.818;2023-05-10T07:09:27;45.60;;;15.83;;
4527;SDS011;62320;51.520;6.818;2023-05-10T07:19:29;43.47;;;16.10;;
4527;SDS011;62320;51.520;6.818;2023-05-10T07:29:30;40.77;;;15.93;;
4527;SDS011;62320;51.520;6.818;2023-05-10T07:39:32;46.80;;;15.93;;
4527;SDS011;62320;51.520;6.818;2023-05-10T07:49:33;44.70;;;14.65;;
4527;SDS011;62320;51.520;6.818;2023-05-10T07:59:35;37.10;;;14.27;;
4527;SDS011;62320;51.520;6.818;2023-05-10T08:09:36;32.30;;;11.20;;
4527;SDS011;62320;51.520;6.818;2023-05-10T08:19:38;34.67;;;12.47;;
4527;SDS011;62320;51.520;6.818;2023-05-10T08:29:39;31.15;;;12.00;;
4527;SDS011;62320;51.520;6.818;2023-05-10T08:39:50;38.33;;;14.07;;
4527;SDS011;62320;51.520;6.818;2023-05-10T08:49:51;30.73;;;11.67;;
4527;SDS011;62320;51.520;6.818;2023-05-10T08:59:53;31.67;;;11.80;;
4527;SDS011;62320;51.520;6.818;2023-05-10T09:09:55;26.10;;;10.23;;
4527;SDS011;62320;51.520;6.818;2023-05-10T09:19:58;29.43;;;10.57;;
4527;SDS011;62320;51.520;6.818;2023-05-10T09:30:00;30.10;;;11.45;;
4527;SDS011;62320;51.520;6.818;2023-05-10T09:40:05;24.20;;;9.95;;
4527;SDS011;62320;51.520;6.818;2023-05-10T09:50:09;22.37;;;8.93;;
4527;SDS011;62320;51.520;6.818;2023-05-10T10:00:10;23.13;;;9.80;;
4527;SDS011;62320;51.520;6.818;2023-05-10T10:10:18;22.63;;;10.32;;
4527;SDS011;62320;51.520;6.818;2023-05-10T10:20:21;27.90;;;12.23;;
4527;SDS011;62320;51.520;6.818;2023-05-10T10:40:32;23.27;;;10.18;;
4527;SDS011;62320;51.520;6.818;2023-05-10T10:50:43;21.67;;;9.00;;
4527;SDS011;62320;51.520;6.818;2023-05-10T11:00:45;19.50;;;8.40;;
4527;SDS011;62320;51.520;6.818;2023-05-10T11:21:00;19.02;;;8.85;;
4527;SDS011;62320;51.520;6.818;2023-05-10T11:31:06;26.47;;;11.00;;
4527;SDS011;62320;51.520;6.818;2023-05-10T11:41:08;22.70;;;10.00;;
4527;SDS011;62320;51.520;6.818;2023-05-10T11:51:11;23.88;;;10.82;;
4527;SDS011;62320;51.520;6.818;2023-05-10T12:01:12;22.53;;;10.13;;
4527;SDS011;62320;51.520;6.818;2023-05-10T12:11:14;19.13;;;9.10;;
4527;SDS011;62320;51.520;6.818;2023-05-10T12:21:19;15.23;;;7.00;;
4527;SDS011;62320;51.520;6.818;2023-05-10T12:31:22;13.10;;;6.10;;
4527;SDS011;62320;51.520;6.818;2023-05-10T12:41:23;16.83;;;7.57;;
4527;SDS011;62320;51.520;6.818;2023-05-10T12:51:26;16.73;;;7.07;;
4527;SDS011;62320;51.520;6.818;2023-05-10T13:01:28;12.88;;;5.72;;
4527;SDS011;62320;51.520;6.818;2023-05-10T13:11:29;12.80;;;6.10;;
4527;SDS011;62320;51.520;6.818;2023-05-10T13:21:31;11.40;;;5.10;;
4527;SDS011;62320;51.520;6.818;2023-05-10T13:31:32;11.27;;;5.05;;
4527;SDS011;62320;51.520;6.818;2023-05-10T13:41:34;11.97;;;4.87;;
4527;SDS011;62320;51.520;6.818;2023-05-10T13:51:36;11.77;;;5.33;;
4527;SDS011;62320;51.520;6.818;2023-05-10T14:01:37;9.48;;;4.40;;
4527;SDS011;62320;51.520;6.818;2023-05-10T14:11:39;10.33;;;4.20;;
4527;SDS011;62320;51.520;6.818;2023-05-10T14:21:44;10.50;;;5.23;;
4527;SDS011;62320;51.520;6.818;2023-05-10T14:31:45;9.07;;;4.88;;
4527;SDS011;62320;51.520;6.818;2023-05-10T14:41:47;10.93;;;4.72;;
4527;SDS011;62320;51.520;6.818;2023-05-10T14:51:48;9.63;;;5.30;;
4527;SDS011;62320;51.520;6.818;2023-05-10T15:01:50;11.13;;;5.97;;
4527;SDS011;62320;51.520;6.818;2023-05-10T15:11:52;13.55;;;6.35;;
4527;SDS011;62320;51.520;6.818;2023-05-10T15:21:54;14.23;;;7.27;;
4527;SDS011;62320;51.520;6.818;2023-05-10T15:31:57;16.57;;;8.10;;
4527;SDS011;62320;51.520;6.818;2023-05-10T15:41:59;13.32;;;7.68;;
4527;SDS011;62320;51.520;6.818;2023-05-10T15:52:00;10.87;;;5.10;;
4527;SDS011;62320;51.520;6.818;2023-05-10T16:02:02;7.47;;;3.23;;
4527;SDS011;62320;51.520;6.818;2023-05-10T16:12:04;7.30;;;3.25;;
4527;SDS011;62320;51.520;6.818;2023-05-10T16:22:06;6.53;;;2.85;;
4527;SDS011;62320;51.520;6.818;2023-05-10T16:32:07;8.77;;;4.47;;
4527;SDS011;62320;51.520;6.818;2023-05-10T16:42:09;11.13;;;5.97;;
4527;SDS011;62320;51.520;6.818;2023-05-10T16:52:10;12.80;;;6.10;;
4527;SDS011;62320;51.520;6.818;2023-05-10T17:02:13;12.37;;;4.97;;
4527;SDS011;62320;51.520;6.818;2023-05-10T17:12:15;12.13;;;5.77;;
4527;SDS011;62320;51.520;6.818;2023-05-10T17:22:16;9.90;;;4.32;;
4527;SDS011;62320;51.520;6.818;2023-05-10T17:32:18;12.20;;;5.30;;
4527;SDS011;62320;51.520;6.818;2023-05-10T17:42:19;13.90;;;6.13;;
4527;SDS011;62320;51.520;6.818;2023-05-10T17:52:21;12.00;;;5.82;;
4527;SDS011;62320;51.520;6.818;2023-05-10T18:02:22;14.45;;;6.75;;
4527;SDS011;62320;51.520;6.818;2023-05-10T18:12:24;15.47;;;6.93;;
4527;SDS011;62320;51.520;6.818;2023-05-10T18:22:25;14.50;;;7.67;;
4527;SDS011;62320;51.520;6.818;2023-05-10T18:32:27;13.98;;;6.60;;
4527;SDS011;62320;51.520;6.818;2023-05-10T18:42:28;12.90;;;6.10;;
4527;SDS011;62320;51.520;6.818;2023-05-10T18:52:30;12.50;;;6.30;;
4527;SDS011;62320;51.520;6.818;2023-05-10T19:02:31;15.02;;;7.43;;
4527;SDS011;62320;51.520;6.818;2023-05-10T19:12:33;15.03;;;6.63;;
4527;SDS011;62320;51.520;6.818;2023-05-10T19:22:35;15.83;;;7.37;;
4527;SDS011;62320;51.520;6.818;2023-05-10T19:32:56;16.00;;;8.32;;
4527;SDS011;62320;51.520;6.818;2023-05-10T19:42:58;17.38;;;8.52;;
4527;SDS011;62320;51.520;6.818;2023-05-10T19:53:00;16.07;;;8.53;;
4527;SDS011;62320;51.520;6.818;2023-05-10T20:03:02;17.07;;;8.73;;
4527;SDS011;62320;51.520;6.818;2023-05-10T20:13:05;18.48;;;9.15;;
4527;SDS011;62320;51.520;6.818;2023-05-10T20:23:07;17.40;;;9.07;;
4527;SDS011;62320;51.520;6.818;2023-05-10T20:33:08;19.73;;;9.73;;
4527;SDS011;62320;51.520;6.818;2023-05-10T20:43:09;22.67;;;10.77;;
4527;SDS011;62320;51.520;6.818;2023-05-10T20:53:11;20.10;;;9.83;;
4527;SDS011;62320;51.520;6.818;2023-05-10T21:03:14;22.10;;;9.60;;
4527;SDS011;62320;51.520;6.818;2023-05-10T21:13:16;22.27;;;11.18;;
4527;SDS011;62320;51.520;6.818;2023-05-10T21:23:17;24.55;;;12.25;;
4527;SDS011;62320;51.520;6.818;2023-05-10T21:33:19;26.87;;;12.17;;
4527;SDS011;62320;51.520;6.818;2023-05-10T21:43:20;23.80;;;11.97;;
4527;SDS011;62320;51.520;6.818;2023-05-10T21:53:22;26.23;;;12.50;;
4527;SDS011;62320;51.520;6.818;2023-05-10T22:03:23;27.93;;;12.93;;
4527;SDS011;62320;51.520;6.818;2023-05-10T22:13:25;32.43;;;14.37;;
4527;SDS011;62320;51.520;6.818;2023-05-10T22:23:26;36.72;;;15.88;;
4527;SDS011;62320;51.520;6.818;2023-05-10T22:33:28;33.90;;;15.53;;
4527;SDS011;62320;51.520;6.818;2023-05-10T22:43:29;35.43;;;15.97;;
4527;SDS011;62320;51.520;6.818;2023-05-10T22:53:30;36.70;;;15.13;;
4527;SDS011;62320;51.520;6.818;2023-05-10T23:03:32;36.22;;;15.88;;
4527;SDS011;62320;51.520;6.818;2023-05-10T23:13:33;35.07;;;15.97;;
4527;SDS011;62320;51.520;6.818;2023-05-10T23:23:35;35.30;;;15.57;;
4527;SDS011;62320;51.520;6.818;2023-05-10T23:33:37;34.97;;;15.63;;
4527;SDS011;62320;51.520;6.818;2023-05-10T23:43:38;35.20;;;15.30;;
4527;SDS011;62320;51.520;6.818;2023-05-10T23:53:40;32.23;;;15.00;;
